Latest Weather Observations for Horsham AWS

IDV60801

Issued at 1:35 pm EST Thursday 17 April 2014 (issued every 30 minutes, with the page automatically refreshed every 10 minutes)

About weather observations | Map of weather stations | Latest weather observations for VIC | Other Formats
Station Details ID: 079100 Name: HORSHAM AERODROME Lat: -36.67 Lon: 142.17 Height: 133.8 m
Data from the previous 72 hours. | See also: Recent months at Horsham AWS
Date/Time
EST
Temp
°C
App
Temp
°C
Dew
Point
Rel
Hum
%
Delta-T
°C
Wind Press
QNH
hPa
Press
MSL
hPa
Rain
since 9 am
mm
Dir
 
Spd
km/h
Gust
km/h
Spd
kts
Gust
kts
17/01:30pm 22.5 19.4 5.4 33 8.6 NNW 11 20 6 11 1019.4 - 0.0
17/01:00pm 22.0 19.2 5.0 33 8.4 NNW 9 20 5 11 1019.8 - 0.0
17/12:30pm 21.6 19.4 6.3 37 7.8 WNW 7 13 4 7 1020.3 - 0.0
17/12:00pm 20.9 18.7 6.1 38 7.4 NW 7 9 4 5 1020.8 1020.8 0.0
17/11:30am 20.1 17.9 5.4 38 7.3 ESE 6 11 3 6 1021.0 - 0.0
17/11:00am 19.4 18.5 9.3 52 5.4 SW 4 7 2 4 1021.2 - 0.0
17/10:30am 19.0 18.7 10.0 56 4.8 E 2 7 1 4 1021.3 - 0.0
17/10:00am 17.5 16.5 10.4 63 3.8 E 6 9 3 5 1021.5 - 0.0
17/09:30am 15.1 14.0 10.5 74 2.4 SE 7 9 4 5 1021.5 - 0.0
17/09:00am 12.9 12.3 11.6 92 0.7 WSW 6 6 3 3 1021.6 1021.6 0.0
17/08:00am 8.9 6.9 8.6 98 0.1 WSW 9 11 5 6 1021.1 - 0.0
17/07:30am 7.7 5.0 7.3 97 0.2 SW 11 13 6 7 1020.6 - 0.0
17/07:00am 8.0 5.4 7.6 97 0.2 SW 11 13 6 7 1020.3 - 0.0
17/06:30am 8.2 6.0 7.8 97 0.2 S 9 11 5 6 1020.1 - 0.0
17/06:00am 7.8 4.0 7.4 97 0.2 E 17 17 9 9 1019.6 1019.6 0.0
17/05:30am 8.0 5.4 7.6 97 0.2 ESE 11 11 6 6 1019.7 - 0.0
17/05:00am 7.5 5.1 6.9 96 0.3 SE 9 11 5 6 1019.6 - 0.0
17/04:30am 7.8 5.4 7.2 96 0.3 ESE 9 9 5 5 1019.4 - 0.0
17/04:00am 7.8 6.0 7.1 95 0.3 SE 6 7 3 4 1019.2 - 0.0
17/03:30am 10.0 8.8 9.5 97 0.3 SSE 6 9 3 5 1019.3 - 0.0
17/03:00am 8.5 6.3 7.9 96 0.3 SE 9 11 5 6 1019.3 1019.3 0.0
17/02:30am 8.4 5.8 7.6 95 0.4 S 11 11 6 6 1019.4 - 0.0
17/02:00am 9.8 7.4 8.7 93 0.5 S 11 13 6 7 1019.5 - 0.0
17/01:30am 10.9 8.7 9.5 91 0.7 SW 11 11 6 6 1019.6 - 0.0
17/01:00am 11.4 8.9 9.7 89 0.9 SW 13 13 7 7 1019.6 - 0.0
17/12:30am 11.8 9.7 9.7 87 1.1 SW 11 13 6 7 1019.6 - 0.0
17/12:00am 11.8 9.2 9.2 84 1.3 SW 13 15 7 8 1019.7 1019.7 0.0
 
Date/Time
EST
Temp
°C
App
Temp
°C
Dew
Point
Rel
Hum
%
Delta-T
°C
Wind Press
QNH
hPa
Press
MSL
hPa
Rain
since 9 am
mm
Dir
 
Spd
km/h
Gust
km/h
Spd
kts
Gust
kts
16/11:30pm 12.9 10.3 9.2 78 1.9 WSW 13 15 7 8 1019.9 - 0.0
16/11:00pm 13.5 10.9 9.2 75 2.2 W 13 17 7 9 1020.0 - 0.0
16/10:30pm 13.7 11.2 9.6 76 2.1 W 13 15 7 8 1019.9 - 0.0
16/10:00pm 12.8 12.3 9.3 79 1.8 SE 2 7 1 4 1019.6 - 0.0
16/09:30pm 14.1 14.1 9.9 76 2.2 CALM 0 0 0 0 1019.5 - 0.0
16/09:00pm 15.3 14.0 9.2 67 3.1 SE 6 7 3 4 1019.3 1019.3 0.0
16/08:30pm 15.8 14.5 9.9 68 3.1 SE 7 9 4 5 1018.9 - 0.0
16/08:00pm 16.7 14.7 10.3 66 3.4 SSE 11 13 6 7 1018.8 - 0.0
16/07:30pm 17.2 15.1 8.1 55 4.6 S 9 11 5 6 1019.0 - 0.0
16/07:00pm 18.7 16.6 8.1 50 5.5 SSW 9 9 5 5 1019.0 - 0.0
16/06:30pm 19.6 17.4 8.0 47 6.0 W 9 11 5 6 1019.3 - 0.0
16/06:00pm 19.8 17.9 7.5 45 6.3 W 7 9 4 5 1018.8 1018.7 0.0
16/05:30pm 20.5 17.9 7.8 44 6.6 WNW 11 13 6 7 1018.7 - 0.0
16/05:00pm 21.4 16.9 6.9 39 7.5 WNW 20 28 11 15 1018.6 - 0.0
16/04:30pm 22.4 19.1 6.6 36 8.1 W 13 22 7 12 1018.3 - 0.0
16/04:00pm 21.7 17.9 7.5 40 7.4 WNW 17 24 9 13 1018.3 - 0.0
16/03:30pm 22.2 19.1 7.2 38 7.8 NW 13 28 7 15 1018.4 - 0.0
16/03:00pm 21.5 18.4 7.3 40 7.3 W 13 24 7 13 1018.5 1018.4 0.0
16/02:30pm 22.2 18.7 7.2 38 7.8 NW 15 26 8 14 1018.6 - 0.0
16/02:00pm 20.7 17.0 8.0 44 6.6 WNW 17 20 9 11 1018.9 - 0.0
16/01:30pm 20.3 16.6 8.0 45 6.4 WNW 17 24 9 13 1019.0 - 0.0
16/01:00pm 21.4 17.3 8.0 42 7.0 NW 19 28 10 15 1019.3 - 0.0
16/12:30pm 20.6 17.1 7.2 42 6.9 NNW 15 24 8 13 1019.6 - 0.0
16/12:00pm 20.5 17.5 9.1 48 6.1 NNW 15 22 8 12 1020.0 1020.0 0.0
16/11:30am 19.7 16.6 10.4 55 5.1 N 17 26 9 14 1020.3 - 0.0
16/11:00am 18.1 15.4 10.2 60 4.2 N 15 20 8 11 1020.4 - 0.0
16/10:30am 17.0 13.9 10.4 65 3.5 N 17 22 9 12 1020.8 - 0.0
16/10:00am 16.5 13.9 10.6 68 3.2 NNE 15 19 8 10 1021.1 - 0.0
16/09:30am 15.2 13.6 11.6 79 2.0 ENE 11 15 6 8 1021.4 - 0.0
16/09:00am 13.3 11.7 11.7 90 0.9 E 11 15 6 8 1021.4 1021.4 0.0
16/08:30am 10.6 9.3 10.0 96 0.3 ENE 7 9 4 5 1021.5 - 0.0
16/08:00am 9.2 7.6 8.7 97 0.2 NE 7 9 4 5 1021.5 - 0.0
16/07:30am 6.8 4.6 6.4 97 0.2 NNE 7 9 4 5 1021.2 - 0.0
16/07:00am 6.6 4.0 6.0 96 0.3 ENE 9 9 5 5 1020.7 - 0.0
16/06:30am 7.1 4.6 6.5 96 0.3 ENE 9 11 5 6 1020.6 - 0.0
16/06:00am 7.3 5.2 6.7 96 0.3 SE 7 9 4 5 1020.5 1020.5 0.0
16/05:30am 7.4 5.3 6.8 96 0.3 SE 7 9 4 5 1020.6 - 0.0
16/05:00am 7.9 6.0 7.5 97 0.2 S 7 9 4 5 1020.6 - 0.0
16/04:30am 6.7 3.7 6.0 95 0.3 SE 11 11 6 6 1020.5 - 0.0
16/04:00am 8.0 5.6 7.2 95 0.4 SE 9 9 5 5 1020.8 - 0.0
16/03:30am 7.9 5.5 7.0 94 0.4 E 9 11 5 6 1020.8 - 0.0
16/03:00am 9.7 8.1 8.8 94 0.4 SE 7 9 4 5 1020.9 1020.9 0.0
16/02:30am 9.7 7.7 8.6 93 0.5 SSE 9 9 5 5 1021.2 - 0.0
16/02:00am 9.4 7.3 8.3 93 0.5 SSE 9 11 5 6 1021.3 - 0.0
16/01:30am 9.0 6.4 7.9 93 0.5 ESE 11 13 6 7 1021.2 - 0.0
16/01:00am 8.9 6.7 7.7 92 0.6 ESE 9 11 5 6 1021.2 - 0.0
16/12:30am 9.8 6.9 8.2 90 0.8 SE 13 15 7 8 1021.2 - 0.0
16/12:00am 9.8 6.5 8.2 90 0.8 SE 15 17 8 9 1021.3 1021.3 0.0
 
Date/Time
EST
Temp
°C
App
Temp
°C
Dew
Point
Rel
Hum
%
Delta-T
°C
Wind Press
QNH
hPa
Press
MSL
hPa
Rain
since 9 am
mm
Dir
 
Spd
km/h
Gust
km/h
Spd
kts
Gust
kts
15/11:30pm 10.2 6.2 8.3 88 0.9 ESE 19 19 10 10 1021.6 - 0.0
15/11:00pm 10.9 7.3 8.5 85 1.2 ESE 17 19 9 10 1022.0 - 0.0
15/10:30pm 11.8 7.9 8.8 82 1.5 ESE 19 20 10 11 1021.7 - 0.0
15/10:00pm 12.0 7.9 8.5 79 1.7 ESE 20 22 11 12 1022.0 - 0.0
15/09:30pm 13.2 8.7 8.7 74 2.3 ESE 22 24 12 13 1022.0 - 0.0
15/09:00pm 13.1 8.5 8.2 72 2.4 ESE 22 24 12 13 1022.1 1022.0 0.0
15/08:30pm 11.9 8.1 7.6 75 2.1 ESE 17 20 9 11 1022.0 - 0.0
15/08:00pm 12.0 8.9 7.1 72 2.4 SE 13 15 7 8 1022.0 - 0.0
15/07:30pm 12.5 9.3 7.0 69 2.7 SE 13 13 7 7 1022.0 - 0.0
15/07:00pm 12.9 9.7 6.7 66 3.0 SE 13 15 7 8 1021.6 - 0.0
15/06:30pm 14.4 10.8 6.7 60 3.8 SE 15 19 8 10 1021.4 - 0.0
15/06:00pm 16.6 13.2 7.5 55 4.6 ESE 15 17 8 9 1021.1 1021.1 0.0
15/05:30pm 18.9 15.7 8.6 51 5.4 ESE 15 17 8 9 1020.9 - 0.0
15/05:00pm 19.4 16.2 8.4 49 5.7 ESE 15 20 8 11 1020.9 - 0.0
15/04:30pm 20.1 16.3 9.1 49 5.8 ESE 19 24 10 13 1020.8 - 0.0
15/04:00pm 20.8 18.1 9.1 47 6.2 E 13 20 7 11 1020.7 - 0.0
15/03:30pm 20.0 16.7 9.6 51 5.6 SE 17 24 9 13 1020.9 - 0.0
15/03:00pm 20.7 17.1 9.9 50 5.8 SE 19 28 10 15 1021.1 1021.1 0.0
15/02:30pm 20.2 16.2 9.2 49 5.9 SE 20 32 11 17 1021.1 - 0.0
15/02:00pm 20.4 16.2 9.9 51 5.7 ESE 22 28 12 15 1021.2 - 0.0
15/01:30pm 20.5 16.7 9.7 50 5.8 ESE 20 32 11 17 1021.4 - 0.0
15/01:00pm 20.5 15.9 9.7 50 5.8 ESE 24 35 13 19 1021.9 - 0.0
15/12:30pm 20.0 16.3 9.3 50 5.7 ESE 19 30 10 16 1022.5 - 0.0
15/12:00pm 19.4 14.6 9.0 51 5.5 SE 24 32 13 17 1023.0 1022.9 0.0
15/11:30am 19.0 14.4 9.5 54 5.1 SE 24 33 13 18 1023.4 - 0.0
15/11:00am 17.6 15.1 10.9 65 3.6 SSE 15 24 8 13 1023.7 - 0.0
15/10:30am 16.6 13.9 10.5 67 3.3 S 15 22 8 12 1024.0 - 0.0
15/10:00am 15.8 13.7 11.0 73 2.6 S 13 19 7 10 1024.2 - 0.0
15/09:30am 14.7 12.1 10.7 77 2.1 SSE 15 19 8 10 1024.4 - 0.0
15/09:00am 12.2 10.3 10.6 90 0.8 S 11 13 6 7 1024.5 1024.4 0.0
15/08:30am 10.3 8.2 9.8 97 0.3 SSW 11 13 6 7 1024.6 - 0.0
15/08:00am 8.8 6.4 8.5 98 0.1 SSW 11 13 6 7 1024.4 - 0.0
15/07:36am 7.1 3.9 6.8 98 0.1 SW 13 15 7 8 1024.0 - 0.0
15/07:30am 7.2 4.0 6.9 98 0.1 SSW 13 15 7 8 1023.9 - 0.0
15/07:00am 6.4 3.4 6.0 97 0.2 SW 11 13 6 7 1023.7 - 0.0
15/06:30am 7.1 3.9 6.7 97 0.2 SSW 13 15 7 8 1023.5 - 0.0
15/06:00am 7.1 4.2 6.7 97 0.2 SSW 11 13 6 7 1023.5 1023.4 0.0
15/05:30am 5.9 3.5 5.2 95 0.3 SSW 7 9 4 5 1023.5 - 0.0
15/05:00am 7.1 4.6 6.4 95 0.3 SSW 9 11 5 6 1023.3 - 0.0
15/04:30am 7.9 5.1 7.0 94 0.4 SSW 11 13 6 7 1023.1 - 0.0
15/04:00am 8.4 5.3 7.3 93 0.5 SSW 13 15 7 8 1023.0 - 0.0
15/03:30am 9.4 6.1 8.2 92 0.6 S 15 17 8 9 1023.1 - 0.0
15/03:00am 9.9 6.4 8.8 93 0.5 SSE 17 20 9 11 1023.1 1023.0 0.0
15/02:30am 8.0 5.2 6.9 93 0.5 SSE 11 13 6 7 1023.2 - 0.0
15/02:00am 7.5 4.5 6.1 91 0.6 SSE 11 13 6 7 1023.3 - 0.0
15/01:30am 8.2 5.0 6.7 90 0.7 SSE 13 15 7 8 1023.3 - 0.0
15/01:00am 8.4 5.5 6.4 87 0.9 SSE 11 13 6 7 1023.3 - 0.0
15/12:30am 9.4 6.5 6.5 82 1.4 S 11 15 6 8 1023.3 - 0.0
15/12:00am 12.3 8.4 8.6 78 1.8 SSE 19 22 10 12 1023.3 1023.2 0.0
 
Date/Time
EST
Temp
°C
App
Temp
°C
Dew
Point
Rel
Hum
%
Delta-T
°C
Wind Press
QNH
hPa
Press
MSL
hPa
Rain
since 9 am
mm
Dir
 
Spd
km/h
Gust
km/h
Spd
kts
Gust
kts
14/11:30pm 12.5 8.5 8.2 75 2.1 SE 19 22 10 12 1023.3 - 0.0
14/11:00pm 12.8 8.0 7.5 70 2.6 SE 22 26 12 14 1023.3 - 0.0
14/10:30pm 13.2 8.4 7.4 68 2.8 SE 22 30 12 16 1023.3 - 0.0
14/10:00pm 13.3 9.1 7.3 67 2.9 SSE 19 24 10 13 1023.2 - 0.0
14/09:30pm 13.5 9.3 7.3 66 3.0 SSE 19 20 10 11 1023.3 - 0.0
14/09:00pm 14.3 9.9 7.4 63 3.4 SSE 20 24 11 13 1023.2 1023.1 0.0
14/08:30pm 15.2 10.4 7.5 60 3.8 SSE 22 28 12 15 1023.1 - 0.0
14/08:00pm 15.4 11.0 7.4 59 4.0 SE 20 26 11 14 1022.9 - 0.0
14/07:30pm 15.8 11.0 7.3 57 4.2 SSE 22 24 12 13 1022.6 - 0.0
14/07:00pm 16.3 11.4 7.0 54 4.6 SE 22 24 12 13 1022.5 - 0.0
14/06:30pm 16.7 11.8 6.8 52 4.9 SE 22 24 12 13 1022.0 - 0.0
14/06:00pm 17.9 13.0 7.0 49 5.5 SE 22 28 12 15 1021.6 1021.6 0.0
14/05:30pm 19.4 14.1 6.8 44 6.4 SE 24 30 13 16 1021.2 - 0.0
14/05:00pm 20.3 14.5 6.3 40 7.1 SE 26 32 14 17 1020.9 - 0.0
14/04:30pm 20.9 15.1 6.1 38 7.5 SE 26 35 14 19 1020.7 - 0.0
14/04:00pm 20.8 16.3 6.0 38 7.4 S 19 30 10 16 1020.9 - 0.0
14/03:30pm 21.3 15.8 6.0 37 7.7 SE 24 33 13 18 1020.9 - 0.0
14/03:00pm 21.6 16.1 5.9 36 7.9 SE 24 35 13 19 1020.9 1020.9 0.0
14/02:30pm 20.7 15.7 6.3 39 7.3 SE 22 33 12 18 1021.0 - 0.0
14/02:00pm 20.3 14.2 6.6 41 7.0 SE 28 37 15 20 1021.1 - 0.0

Other Formats:

Comma delimited format used in spreadsheet applications
http://www.bom.gov.au/fwo/IDV60801/IDV60801.95839.axf

JavaScript Object Notation format (JSON) in row-major order
http://www.bom.gov.au/fwo/IDV60801/IDV60801.95839.json